Archival Weather

South Haven Area Rgnl

South Haven, Michigan (KLWA)

Report from: Wednesday, December 6, 2023 11:15 AM EST
Current time: Saturday, February 24, 2024 11:21 AM EST

Current weather – Weather history – Daily summaries
Weather forecast

Temperature4.6°C (40.3°F)
Wind chill2.4°C (36.3°F)
Dew point-1.6°C (29.1°F)
Winds 5 kts (2.6 m/s, 5.8 mph) West-Northwest (290°)
Visibility10 mi. (16.1 km)
Clouds Scattered clouds 2,700 ft. (823 m)
Ceiling: Overcast 3,200 ft. (975 m)
Altimeter30.25 in.Hg (1024 mB)
Relative humidity64 %
Density altitude-1,551 ft. (-473 m)
Remarks Fully automated report
Automated weather observing station with precipitation discriminator
Flight conditions Visual Meteorological Conditions
Raw dataKLWA 061615Z AUTO 29005KT 10SM SCT027 OVC032 05/M02 A3025 RMK AO2 T00461016
An error has occurred. This application may no longer respond until reloaded. Reload 🗙